Notice: Undefined index: name in /home/klewjulp/public_html/pwsWD/metar_load_funct.php on line 61

Notice: Undefined index: humidity_percent in /home/klewjulp/public_html/pwsWD/metar_load_funct.php on line 103
Weather34 Metar Aviation Weather Data Popup
14°C Temp
'.PHP_EOL;
11°C Dewpoint
% Humidity
Temperature
19 KM/H
12 MPH
10 KTS
270°
Due West

Wind
Clear
Pressure 1010.92 (hPa)- 29.85 (in)
Visibility 6.2 (mi) - 10 (km)

Current Conditions
EGFF
Location 58(mi)
Metar:
EGFF 191420Z AUTO 27010KT 9999 NCD 14/11 Q1011

Notice: Undefined offset: 1 in /home/klewjulp/public_html/pwsWD/metar_popup.php on line 285

Notice: Undefined offset: 1 in /home/klewjulp/public_html/pwsWD/metar_popup.php on line 287

Warning: gmmktime() expects parameter 1 to be integer, string given in /home/klewjulp/public_html/pwsWD/metar_popup.php on line 288
Thu 1st January 01:00 am

Airport
  Metar Aviation API Data Provided by https://www.checkwx.com/